Forside
METAR-TAF:

METAR-TAF

Lufthavne :

Pointe-Noire, Congo

Breddekreds: 04-49S, længdekreds: 011-54E, højde: 17 m

Aktuelle vejr

Denne rapport blev lavet for 1 time og 13 minutter siden, kl. 12:00 UTC
Vind 11 kt fra sydsydvest
Temperatur 27°C
Fugtighed 66%
Tryk 1015 hPa
Sigt 10 km eller mere
Spredte skyer i en højde af 1300 ft
Overskyet i en højde af 2600 ft

METAR: FCPP 221200Z 20011KT 9999 SCT013 OVC026 27/20 Q1015 NOSIG

Tid: 14:13 (13:13 UTC)

Vejrudsigter

Denne rapport blev lavet for 2 timer og 13 minutter siden, kl. 11:00 UTC
Foreløbig gælder fra 22 på 12 UTC til 23 på 12 UTC
Vind 8 kt fra syd
Sigt 10 km eller mere
Spredte skyer i en højde af 1200 ft
Brudte skyer i en højde af 2600 ft
Sandsynlighed 30%
fra 23 på 03 UTC til 23 på 07 UTC
Sigt: 4000 m
dis

TAF: FCPP 221100Z 2212/2312 19008KT 9999 SCT012 BKN026 PROB30 2303/2307 4000 BR

Vejrobservationer og prognoser fra mere end 4000 lufthavne (METAR og TAF).

De gule og røde prikker repræsenterer de meteorologiske stationer.

Flyt musen over at se navnet på stationen.

Så klik over at se vejr observationer og prognoser.

At skifte det kort: Klik på de grønne knapper med et sort kors for at zoome ind; på den grønne knap med en bindestreg for at zoome ud; eller på de grønne pile for tilstødende kort.


METAR-TAF: